createdAt,value
2022-10-18T00:02:06.808Z,101739.34
2022-10-18T00:04:33.067Z,101750.72
2022-10-18T00:06:59.438Z,101751.88
2022-10-18T00:09:27.097Z,101745.00
2022-10-18T00:11:54.954Z,101736.97
2022-10-18T00:14:21.509Z,101745.31
2022-10-18T00:16:47.911Z,101743.59
2022-10-18T00:19:14.164Z,101748.03
2022-10-18T00:21:40.813Z,101759.06
2022-10-18T00:24:07.185Z,101759.06
2022-10-18T00:26:33.510Z,101757.03
2022-10-18T00:29:03.213Z,101756.63
2022-10-18T00:31:32.696Z,101757.50
2022-10-18T00:34:02.795Z,101761.38
2022-10-18T00:36:31.817Z,101765.25
2022-10-18T00:38:58.253Z,101757.53
2022-10-18T00:41:27.459Z,101753.25
2022-10-18T00:43:59.611Z,101757.53
2022-10-18T00:46:28.651Z,101767.44
2022-10-18T00:48:57.142Z,101767.44
2022-10-18T00:51:31.959Z,101761.97
2022-10-18T00:53:58.462Z,101761.97
2022-10-18T00:56:24.885Z,101761.97
2022-10-18T00:58:51.200Z,101763.63
2022-10-18T01:01:17.641Z,101764.63
2022-10-18T01:03:43.906Z,101757.34
2022-10-18T01:06:10.290Z,101760.38
2022-10-18T01:09:07.438Z,101756.34
2022-10-18T01:11:43.979Z,101753.81
2022-10-18T01:14:43.347Z,101757.53
2022-10-18T01:17:18.446Z,101757.56
2022-10-18T01:19:53.423Z,101757.88
2022-10-18T01:22:27.026Z,101764.22
2022-10-18T01:25:14.878Z,101752.44
2022-10-18T01:28:15.022Z,101768.50
2022-10-18T01:30:59.747Z,101765.47
2022-10-18T01:33:35.391Z,101761.19
2022-10-18T01:36:21.278Z,101761.19
2022-10-18T01:38:51.571Z,101754.47
2022-10-18T01:41:21.185Z,101762.50
2022-10-18T01:43:52.233Z,101752.75
2022-10-18T01:46:23.052Z,101755.31
2022-10-18T01:48:50.752Z,101745.56
2022-10-18T01:51:26.416Z,101744.28
2022-10-18T01:53:53.269Z,101750.16
2022-10-18T01:56:35.954Z,101738.44
2022-10-18T01:59:22.024Z,101752.47
2022-10-18T02:02:01.891Z,101750.34
2022-10-18T02:04:38.073Z,101755.06
2022-10-18T02:07:22.953Z,101749.47
2022-10-18T02:10:03.350Z,101750.34
2022-10-18T02:12:32.609Z,101744.19
2022-10-18T02:15:01.592Z,101747.34
2022-10-18T02:17:29.794Z,101744.75
2022-10-18T02:19:56.931Z,101741.63
2022-10-18T02:22:27.229Z,101742.75
2022-10-18T02:24:56.962Z,101746.03
2022-10-18T02:27:23.886Z,101745.75
2022-10-18T02:29:51.107Z,101742.03
2022-10-18T02:32:47.256Z,101744.63
2022-10-18T02:35:20.350Z,101743.78
2022-10-18T02:37:48.366Z,101736.75
2022-10-18T02:40:15.968Z,101740.19
2022-10-18T02:42:54.180Z,101750.38
2022-10-18T02:45:20.674Z,101747.34
2022-10-18T02:47:47.114Z,101753.94
2022-10-18T02:50:13.979Z,101743.63
2022-10-18T02:52:40.392Z,101748.09
2022-10-18T02:55:07.825Z,101752.66
2022-10-18T02:57:34.529Z,101767.75
2022-10-18T03:00:01.394Z,101752.66
2022-10-18T03:02:27.730Z,101760.84
2022-10-18T03:04:54.091Z,101776.03
2022-10-18T03:07:20.256Z,101770.44
2022-10-18T03:09:46.686Z,101776.03
2022-10-18T03:12:12.896Z,101774.28
2022-10-18T03:14:39.305Z,101768.69
2022-10-18T03:17:05.633Z,101769.72
2022-10-18T03:19:32.559Z,101760.81
2022-10-18T03:21:59.132Z,101768.84
2022-10-18T03:24:25.578Z,101776.44
2022-10-18T03:26:51.852Z,101772.28
2022-10-18T03:29:18.259Z,101768.56
2022-10-18T03:31:44.493Z,101772.28
2022-10-18T03:34:11.446Z,101778.19
2022-10-18T03:36:39.427Z,101776.06
2022-10-18T03:39:05.919Z,101770.31
2022-10-18T03:41:32.234Z,101781.63
2022-10-18T03:43:58.617Z,101784.94
2022-10-18T03:46:24.796Z,101784.22
2022-10-18T03:48:51.134Z,101776.03
2022-10-18T03:51:17.264Z,101778.88
2022-10-18T03:53:43.663Z,101786.06
2022-10-18T03:56:09.837Z,101789.16
2022-10-18T03:58:36.310Z,101786.31
2022-10-18T04:01:02.715Z,101796.50
2022-10-18T04:03:29.048Z,101793.66
2022-10-18T04:05:55.237Z,101792.09
2022-10-18T04:08:21.661Z,101794.97
2022-10-18T04:10:48.369Z,101796.09
2022-10-18T04:13:14.731Z,101800.81
2022-10-18T04:15:40.896Z,101794.66
2022-10-18T04:18:07.253Z,101789.78
2022-10-18T04:20:33.425Z,101784.16
2022-10-18T04:22:59.731Z,101791.63
2022-10-18T04:25:26.078Z,101787.75
2022-10-18T04:27:52.557Z,101782.00
2022-10-18T04:30:18.810Z,101779.41
2022-10-18T04:32:45.416Z,101782.84
2022-10-18T04:35:11.638Z,101772.78
2022-10-18T04:37:37.995Z,101770.06
2022-10-18T04:40:04.613Z,101769.34
2022-10-18T04:42:31.078Z,101768.22
2022-10-18T04:44:57.369Z,101774.09
2022-10-18T04:47:23.762Z,101773.94
2022-10-18T04:49:50.107Z,101763.06
2022-10-18T04:52:16.775Z,101770.19
2022-10-18T04:54:43.431Z,101766.72
2022-10-18T04:57:09.907Z,101765.56
2022-10-18T04:59:36.759Z,101765.53
2022-10-18T05:04:35.258Z,101753.78
2022-10-18T05:07:02.236Z,101753.16
2022-10-18T05:09:28.419Z,101759.19
2022-10-18T05:11:54.712Z,101756.13
2022-10-18T05:14:20.842Z,101764.78
2022-10-18T05:16:47.178Z,101760.91
2022-10-18T05:19:13.652Z,101751.00
2022-10-18T05:21:40.363Z,101764.41
2022-10-18T05:24:06.765Z,101756.81
2022-10-18T05:26:33.349Z,101753.09
2022-10-18T05:28:59.975Z,101753.34
2022-10-18T05:31:26.627Z,101741.28
2022-10-18T05:33:53.308Z,101741.97
2022-10-18T05:36:19.949Z,101747.53
2022-10-18T05:38:47.667Z,101744.81
2022-10-18T05:41:14.312Z,101742.63
2022-10-18T05:43:40.702Z,101738.88
2022-10-18T05:46:11.890Z,101741.88
2022-10-18T05:48:43.640Z,101747.97
2022-10-18T05:51:11.158Z,101755.69
2022-10-18T05:53:38.190Z,101745.16
2022-10-18T05:56:06.383Z,101739.41
2022-10-18T05:58:33.280Z,101752.97
2022-10-18T06:01:00.720Z,101757.78
2022-10-18T06:03:27.255Z,101750.28
2022-10-18T06:06:09.469Z,101747.88
2022-10-18T06:08:37.265Z,101755.63
2022-10-18T06:11:08.760Z,101752.25
2022-10-18T06:13:39.592Z,101759.22
2022-10-18T06:16:06.492Z,101761.16
2022-10-18T06:18:32.886Z,101771.31
2022-10-18T06:20:59.431Z,101776.00
2022-10-18T06:23:29.282Z,101785.44
2022-10-18T06:26:04.685Z,101787.69
2022-10-18T06:28:34.139Z,101793.16
2022-10-18T06:31:01.024Z,101789.63
2022-10-18T06:33:27.496Z,101803.03
2022-10-18T06:36:05.348Z,101808.03
2022-10-18T06:38:32.556Z,101807.09
2022-10-18T06:40:59.600Z,101812.22
2022-10-18T06:43:26.165Z,101812.59
2022-10-18T06:45:52.954Z,101803.38
2022-10-18T06:48:21.012Z,101810.16
2022-10-18T06:50:52.938Z,101820.66
2022-10-18T06:53:19.302Z,101816.78
2022-10-18T06:55:46.249Z,101815.50
2022-10-18T06:58:12.591Z,101818.81
2022-10-18T07:00:39.087Z,101808.75
2022-10-18T07:03:05.462Z,101819.56
2022-10-18T07:07:59.413Z,101830.72
2022-10-18T07:10:25.883Z,101838.59
2022-10-18T07:12:59.198Z,101830.25
2022-10-18T07:15:37.689Z,101831.97
2022-10-18T07:18:04.209Z,101827.19
2022-10-18T07:20:30.641Z,101818.81
2022-10-18T07:22:56.910Z,101817.09
2022-10-18T07:25:25.871Z,101818.84
2022-10-18T07:27:54.647Z,101816.59
2022-10-18T07:30:21.067Z,101814.75
2022-10-18T07:32:47.243Z,101811.84
2022-10-18T07:35:14.078Z,101815.28
2022-10-18T07:37:40.314Z,101813.25
2022-10-18T07:40:07.373Z,101818.03
2022-10-18T07:42:34.727Z,101821.13
2022-10-18T07:45:01.517Z,101818.94
2022-10-18T07:47:30.081Z,101813.09
2022-10-18T07:49:59.128Z,101824.94
2022-10-18T07:52:25.270Z,101816.19
2022-10-18T07:54:51.868Z,101816.88
2022-10-18T07:57:18.043Z,101813.28
2022-10-18T07:59:47.273Z,101813.44
2022-10-18T08:02:13.400Z,101811.75
2022-10-18T08:04:39.837Z,101805.75
2022-10-18T08:07:06.105Z,101803.34
2022-10-18T08:09:32.450Z,101808.16
2022-10-18T08:11:59.487Z,101814.81
2022-10-18T08:14:25.873Z,101808.47
2022-10-18T08:16:52.194Z,101806.75
2022-10-18T08:19:18.528Z,101806.22
2022-10-18T08:21:44.689Z,101802.28
2022-10-18T08:24:11.457Z,101794.56
2022-10-18T08:26:37.741Z,101791.66
2022-10-18T08:29:17.946Z,101787.38
2022-10-18T08:31:50.203Z,101787.91
2022-10-18T08:34:19.697Z,101785.34
2022-10-18T08:36:46.333Z,101782.59
2022-10-18T08:39:12.681Z,101776.56
2022-10-18T08:42:13.262Z,101776.69
2022-10-18T08:44:50.881Z,101776.34
2022-10-18T08:47:20.282Z,101777.53
2022-10-18T08:49:51.098Z,101773.34
2022-10-18T08:52:58.435Z,101772.56
2022-10-18T08:55:35.469Z,101772.59
2022-10-18T08:58:04.628Z,101775.66
2022-10-18T09:00:36.507Z,101770.22
2022-10-18T09:03:25.286Z,101781.38
2022-10-18T09:06:03.573Z,101772.31
2022-10-18T09:08:29.694Z,101772.13
2022-10-18T09:11:12.166Z,101762.78
2022-10-18T09:13:56.909Z,101763.38
2022-10-18T09:16:48.523Z,101772.38
2022-10-18T09:19:20.805Z,101759.97
2022-10-18T09:21:54.694Z,101760.69
2022-10-18T09:24:27.869Z,101768.28
2022-10-18T09:27:00.781Z,101763.91
2022-10-18T09:29:59.441Z,101758.25
2022-10-18T09:32:38.057Z,101761.34
2022-10-18T09:35:24.628Z,101762.09
2022-10-18T09:38:00.235Z,101751.63
2022-10-18T09:40:30.118Z,101755.19
2022-10-18T09:43:05.217Z,101756.53
2022-10-18T09:45:37.146Z,101759.81
2022-10-18T09:48:11.551Z,101754.31
2022-10-18T09:50:42.777Z,101757.59
2022-10-18T09:53:51.749Z,101745.28
2022-10-18T09:56:24.803Z,101751.47
2022-10-18T09:58:51.443Z,101757.88
2022-10-18T10:01:29.813Z,101762.00
2022-10-18T10:03:56.818Z,101752.41
2022-10-18T10:06:31.618Z,101753.16
2022-10-18T10:09:13.397Z,101756.25
2022-10-18T10:11:46.119Z,101743.06
2022-10-18T10:14:18.807Z,101742.41
2022-10-18T10:17:03.140Z,101748.78
2022-10-18T10:19:36.843Z,101747.94
2022-10-18T10:22:09.912Z,101734.94
2022-10-18T10:24:49.709Z,101725.19
2022-10-18T10:27:21.369Z,101723.50
2022-10-18T10:29:52.970Z,101722.81
2022-10-18T10:32:22.044Z,101718.19
2022-10-18T10:34:49.553Z,101720.78
2022-10-18T10:37:28.470Z,101720.94
2022-10-18T10:40:21.957Z,101733.13
2022-10-18T10:43:13.206Z,101740.31
2022-10-18T10:45:58.361Z,101718.38
2022-10-18T10:48:28.749Z,101691.00
2022-10-18T10:51:07.384Z,101684.50
2022-10-18T10:53:41.856Z,101679.19
2022-10-18T10:56:27.054Z,101678.31
2022-10-18T10:58:54.984Z,101687.91
2022-10-18T11:01:27.477Z,101682.78
2022-10-18T11:03:57.153Z,101691.00
2022-10-18T11:06:44.810Z,101687.56
2022-10-18T11:09:35.860Z,101667.88
2022-10-18T11:12:16.846Z,101677.63
2022-10-18T11:14:50.014Z,101680.22
2022-10-18T11:18:00.695Z,101672.16
2022-10-18T11:20:44.797Z,101664.97
2022-10-18T11:23:13.672Z,101655.03
2022-10-18T11:25:58.067Z,101647.13
2022-10-18T11:28:36.505Z,101651.59
2022-10-18T11:31:11.069Z,101646.44
2022-10-18T11:34:14.041Z,101642.22
2022-10-18T11:36:56.181Z,101648.19
2022-10-18T11:39:52.184Z,101645.44
2022-10-18T11:42:39.978Z,101633.97
2022-10-18T11:45:14.956Z,101628.13
2022-10-18T11:47:58.185Z,101637.72
2022-10-18T11:50:33.951Z,101635.50
2022-10-18T11:53:55.564Z,101645.78
2022-10-18T11:56:22.001Z,101648.72
2022-10-18T11:59:10.383Z,101666.88
2022-10-18T12:01:43.718Z,101675.25
2022-10-18T12:04:18.153Z,101669.75
2022-10-18T12:06:47.960Z,101655.56
2022-10-18T12:09:24.673Z,101647.84
2022-10-18T12:12:25.928Z,101641.69
2022-10-18T12:14:56.657Z,101641.34
2022-10-18T12:17:43.943Z,101638.44
2022-10-18T12:20:30.376Z,101638.25
2022-10-18T12:23:03.643Z,101649.72
2022-10-18T12:25:35.360Z,101648.31
2022-10-18T12:28:13.322Z,101654.63
2022-10-18T12:30:59.244Z,101657.22
2022-10-18T12:33:30.491Z,101660.97
2022-10-18T12:36:18.083Z,101669.69
2022-10-18T12:38:47.799Z,101683.66
2022-10-18T12:41:34.993Z,101688.94
2022-10-18T12:44:25.711Z,101666.91
2022-10-18T12:46:55.767Z,101645.53
2022-10-18T12:49:39.127Z,101656.50
2022-10-18T12:52:21.615Z,101668.25
2022-10-18T12:55:05.276Z,101682.13
2022-10-18T12:57:53.019Z,101685.06
2022-10-18T13:00:28.689Z,101663.00
2022-10-18T13:03:13.032Z,101652.94
2022-10-18T13:05:53.802Z,101650.38
2022-10-18T13:08:27.676Z,101640.31
2022-10-18T13:11:09.572Z,101632.28
2022-10-18T13:13:40.047Z,101635.53
2022-10-18T13:16:22.338Z,101637.06
2022-10-18T13:18:59.002Z,101648.53
2022-10-18T13:21:41.004Z,101660.34
2022-10-18T13:24:23.615Z,101663.25
2022-10-18T13:27:31.113Z,101662.91
2022-10-18T13:30:24.068Z,101645.47
2022-10-18T13:33:02.034Z,101641.88
2022-10-18T13:36:03.340Z,101647.16
2022-10-18T13:38:35.979Z,101655.72
2022-10-18T13:43:58.952Z,101654.38
2022-10-18T13:46:34.049Z,101663.94
2022-10-18T13:49:22.379Z,101669.59
2022-10-18T13:52:00.599Z,101666.69
2022-10-18T13:54:54.520Z,101659.16
2022-10-18T13:57:33.184Z,101664.13
2022-10-18T14:00:24.606Z,101665.16
2022-10-18T14:02:59.526Z,101654.38
2022-10-18T14:05:41.672Z,101664.13
2022-10-18T14:08:44.465Z,101674.06
2022-10-18T14:11:45.925Z,101670.47
2022-10-18T14:14:47.414Z,101657.28
2022-10-18T14:17:33.473Z,101656.41
2022-10-18T14:20:18.345Z,101652.66
2022-10-18T14:23:00.756Z,101650.44
2022-10-18T14:25:34.898Z,101659.50
2022-10-18T14:28:08.850Z,101651.97
2022-10-18T14:30:52.163Z,101650.25
2022-10-18T14:33:44.878Z,101658.81
2022-10-18T14:36:21.369Z,101652.31
2022-10-18T14:38:56.487Z,101656.59
2022-10-18T14:41:26.214Z,101656.06
2022-10-18T14:44:08.849Z,101654.03
2022-10-18T14:46:41.997Z,101654.38
2022-10-18T14:49:11.421Z,101644.78
2022-10-18T14:51:40.670Z,101635.72
2022-10-18T14:56:46.064Z,101613.97
2022-10-18T14:59:26.774Z,101603.72
2022-10-18T15:02:13.521Z,101601.81
2022-10-18T15:04:43.587Z,101605.41
2022-10-18T15:07:15.466Z,101611.56
2022-10-18T15:09:43.143Z,101631.09
2022-10-18T15:12:14.236Z,101655.38
2022-10-18T15:14:42.721Z,101655.72
2022-10-18T15:17:18.419Z,101674.56
2022-10-18T15:20:01.823Z,101671.13
2022-10-18T15:22:33.324Z,101675.56
2022-10-18T15:25:17.974Z,101677.28
2022-10-18T15:27:50.241Z,101680.72
2022-10-18T15:30:18.960Z,101679.00
2022-10-18T15:32:57.045Z,101671.31
2022-10-18T15:35:28.039Z,101679.34
2022-10-18T15:37:57.047Z,101690.28
2022-10-18T15:40:23.411Z,101688.41
2022-10-18T15:42:52.550Z,101679.16
2022-10-18T15:45:24.997Z,101690.78
2022-10-18T15:47:58.104Z,101688.72
2022-10-18T15:50:40.464Z,101684.09
2022-10-18T15:53:31.902Z,101685.44
2022-10-18T15:56:03.149Z,101679.81
2022-10-18T15:58:46.815Z,101674.84
2022-10-18T16:01:28.977Z,101680.31
2022-10-18T16:06:26.670Z,101686.31
2022-10-18T16:08:53.624Z,101686.31
2022-10-18T16:11:24.151Z,101689.56
2022-10-18T16:13:55.277Z,101692.13
2022-10-18T16:16:27.129Z,101695.38
2022-10-18T16:18:54.180Z,101694.38
2022-10-18T16:21:27.171Z,101689.22
2022-10-18T16:23:53.887Z,101701.38
2022-10-18T16:26:21.283Z,101701.88
2022-10-18T16:28:50.616Z,101693.69
2022-10-18T16:31:20.832Z,101696.41
2022-10-18T16:33:49.557Z,101691.97
2022-10-18T16:36:18.454Z,101696.41
2022-10-18T16:38:45.692Z,101701.88
2022-10-18T16:41:15.398Z,101702.22
2022-10-18T16:43:44.487Z,101700.16
2022-10-18T16:46:17.241Z,101699.47
2022-10-18T16:48:45.187Z,101702.06
2022-10-18T16:51:12.077Z,101705.31
2022-10-18T16:53:38.794Z,101709.06
2022-10-18T16:56:12.185Z,101710.78
2022-10-18T16:58:38.508Z,101708.22
2022-10-18T17:01:08.057Z,101717.28
2022-10-18T17:03:36.456Z,101713.34
2022-10-18T17:06:03.760Z,101719.16
2022-10-18T17:08:30.257Z,101723.94
2022-10-18T17:10:58.389Z,101725.50
2022-10-18T17:13:25.889Z,101732.00
2022-10-18T17:15:53.049Z,101730.28
2022-10-18T17:18:27.411Z,101727.91
2022-10-18T17:20:54.244Z,101728.59
2022-10-18T17:23:22.568Z,101729.44
2022-10-18T17:26:04.733Z,101728.94
2022-10-18T17:28:33.502Z,101739.19
2022-10-18T17:31:00.150Z,101731.81
2022-10-18T17:33:26.528Z,101737.47
2022-10-18T17:35:52.994Z,101741.41
2022-10-18T17:38:19.776Z,101742.25
2022-10-18T17:40:46.447Z,101750.28
2022-10-18T17:43:13.113Z,101745.69
2022-10-18T17:45:50.545Z,101750.63
2022-10-18T17:48:17.289Z,101749.25
2022-10-18T17:50:43.770Z,101749.06
2022-10-18T17:53:12.346Z,101738.44
2022-10-18T17:55:39.776Z,101734.31
2022-10-18T17:58:06.145Z,101731.91
2022-10-18T18:00:32.709Z,101734.44
2022-10-18T18:03:00.175Z,101735.78
2022-10-18T18:05:31.583Z,101746.75
2022-10-18T18:08:02.753Z,101747.56
2022-10-18T18:10:34.982Z,101750.22
2022-10-18T18:13:02.012Z,101742.84
2022-10-18T18:15:28.570Z,101740.09
2022-10-18T18:17:58.299Z,101735.63
2022-10-18T18:20:25.735Z,101742.94
2022-10-18T18:22:53.077Z,101737.47
2022-10-18T18:25:19.827Z,101740.34
2022-10-18T18:27:46.382Z,101734.72
2022-10-18T18:30:13.793Z,101741.22
2022-10-18T18:32:40.421Z,101739.72
2022-10-18T18:35:07.411Z,101740.94
2022-10-18T18:37:34.403Z,101744.69
2022-10-18T18:40:01.289Z,101742.66
2022-10-18T18:42:27.835Z,101738.53
2022-10-18T18:44:57.149Z,101733.38
2022-10-18T18:47:23.753Z,101735.41
2022-10-18T18:49:53.079Z,101739.81
2022-10-18T18:52:19.496Z,101734.31
2022-10-18T18:54:47.469Z,101740.72
2022-10-18T18:57:13.891Z,101737.25
2022-10-18T18:59:40.427Z,101743.03
2022-10-18T19:02:08.326Z,101742.31
2022-10-18T19:04:35.747Z,101754.28
2022-10-18T19:07:02.359Z,101740.53
2022-10-18T19:09:28.969Z,101742.56
2022-10-18T19:11:55.687Z,101739.84
2022-10-18T19:14:25.239Z,101738.78
2022-10-18T19:16:58.179Z,101736.34
2022-10-18T19:19:27.170Z,101743.13
2022-10-18T19:21:56.573Z,101742.06
2022-10-18T19:24:25.634Z,101745.09
2022-10-18T19:26:55.641Z,101746.88
2022-10-18T19:29:25.322Z,101745.72
2022-10-18T19:31:53.657Z,101746.03
2022-10-18T19:34:21.939Z,101744.94
2022-10-18T19:36:49.235Z,101749.53
2022-10-18T19:39:27.077Z,101754.75
2022-10-18T19:41:57.068Z,101756.25
2022-10-18T19:44:26.957Z,101758.56
2022-10-18T19:46:54.174Z,101755.69
2022-10-18T19:49:20.782Z,101757.16
2022-10-18T19:51:47.567Z,101756.59
2022-10-18T19:54:16.274Z,101752.63
2022-10-18T19:56:43.467Z,101759.84
2022-10-18T19:59:11.490Z,101761.88
2022-10-18T20:01:38.258Z,101760.47
2022-10-18T20:04:06.720Z,101771.84
2022-10-18T20:06:35.720Z,101767.84
2022-10-18T20:09:02.655Z,101768.53
2022-10-18T20:11:29.755Z,101771.72
2022-10-18T20:13:57.591Z,101767.72
2022-10-18T20:16:28.452Z,101774.69
2022-10-18T20:18:57.635Z,101771.47
2022-10-18T20:21:24.858Z,101772.09
2022-10-18T20:23:51.724Z,101784.41
2022-10-18T20:26:20.794Z,101781.66
2022-10-18T20:28:55.429Z,101780.28
2022-10-18T20:31:24.322Z,101776.13
2022-10-18T20:33:57.120Z,101779.03
2022-10-18T20:36:27.560Z,101776.59
2022-10-18T20:38:55.043Z,101790.78
2022-10-18T20:41:27.572Z,101788.22
2022-10-18T20:43:56.725Z,101791.38
2022-10-18T20:46:24.317Z,101794.81
2022-10-18T20:48:53.840Z,101788.91
2022-10-18T20:51:22.043Z,101782.59
2022-10-18T20:53:49.579Z,101786.19
2022-10-18T20:56:19.633Z,101784.75
2022-10-18T20:58:49.543Z,101792.94
2022-10-18T21:01:21.873Z,101791.22
2022-10-18T21:03:50.252Z,101797.94
2022-10-18T21:06:21.284Z,101797.09
2022-10-18T21:08:52.702Z,101799.81
2022-10-18T21:11:18.959Z,101807.59
2022-10-18T21:13:58.303Z,101804.25
2022-10-18T21:16:26.006Z,101806.28
2022-10-18T21:18:52.958Z,101799.56
2022-10-18T21:21:24.572Z,101810.31
2022-10-18T21:23:51.544Z,101808.00
2022-10-18T21:26:21.314Z,101804.56
2022-10-18T21:28:52.776Z,101799.97
2022-10-18T21:31:21.841Z,101796.53
2022-10-18T21:33:53.094Z,101801.13
2022-10-18T21:36:19.522Z,101799.56
2022-10-18T21:38:46.119Z,101800.53
2022-10-18T21:41:15.087Z,101791.22
2022-10-18T21:43:44.438Z,101793.09
2022-10-18T21:46:12.536Z,101795.81
2022-10-18T21:48:43.659Z,101785.63
2022-10-18T21:51:12.331Z,101792.78
2022-10-18T21:53:41.231Z,101783.66
2022-10-18T21:56:13.333Z,101778.03
2022-10-18T21:58:40.859Z,101772.59
2022-10-18T22:01:19.391Z,101784.94
2022-10-18T22:03:48.337Z,101773.94
2022-10-18T22:06:15.892Z,101777.22
2022-10-18T22:08:44.965Z,101763.19
2022-10-18T22:11:13.117Z,101764.19
2022-10-18T22:13:40.230Z,101762.03
2022-10-18T22:16:07.768Z,101760.19
2022-10-18T22:18:34.333Z,101760.91
2022-10-18T22:21:03.889Z,101760.50
2022-10-18T22:23:51.382Z,101755.47
2022-10-18T22:26:17.575Z,101753.31
2022-10-18T22:28:44.929Z,101755.03
2022-10-18T22:31:20.264Z,101731.66
2022-10-18T22:33:51.248Z,101732.09
2022-10-18T22:36:19.248Z,101725.94
2022-10-18T22:38:45.614Z,101722.50
2022-10-18T22:41:11.825Z,101715.63
2022-10-18T22:43:38.234Z,101723.09
2022-10-18T22:46:07.430Z,101727.13
2022-10-18T22:48:34.392Z,101722.69
2022-10-18T22:51:01.683Z,101706.63
2022-10-18T22:53:28.147Z,101710.94
2022-10-18T22:55:54.474Z,101700.03
2022-10-18T22:58:21.344Z,101706.91
2022-10-18T23:00:47.820Z,101707.75
2022-10-18T23:03:15.719Z,101703.16
2022-10-18T23:05:43.733Z,101711.59
2022-10-18T23:08:13.018Z,101705.31
2022-10-18T23:10:40.943Z,101713.91
2022-10-18T23:13:08.169Z,101712.91
2022-10-18T23:15:35.086Z,101713.06
2022-10-18T23:18:01.710Z,101713.06
2022-10-18T23:20:27.890Z,101723.94
2022-10-18T23:22:54.578Z,101712.34
2022-10-18T23:25:20.784Z,101718.81
2022-10-18T23:27:47.238Z,101716.53
2022-10-18T23:30:13.388Z,101714.81
2022-10-18T23:32:39.737Z,101712.22
2022-10-18T23:35:06.439Z,101702.91
2022-10-18T23:37:33.132Z,101707.22
2022-10-18T23:39:59.461Z,101710.34
2022-10-18T23:42:25.861Z,101718.53
2022-10-18T23:44:52.258Z,101718.25
2022-10-18T23:47:18.595Z,101715.81
2022-10-18T23:49:44.744Z,101709.94
2022-10-18T23:52:11.075Z,101708.06
2022-10-18T23:54:37.194Z,101702.63
2022-10-18T23:57:03.642Z,101704.50
2022-10-18T23:59:30.305Z,101703.78
